createdAt,value
2023-04-15T00:03:35.000Z,4.09
2023-04-15T00:07:40.978Z,3.90
2023-04-15T00:11:44.572Z,4.31
2023-04-15T00:15:48.269Z,3.89
2023-04-15T00:19:51.593Z,3.80
2023-04-15T00:23:56.536Z,3.30
2023-04-15T00:27:59.642Z,3.20
2023-04-15T00:32:03.061Z,2.81
2023-04-15T00:36:08.704Z,3.23
2023-04-15T00:40:15.018Z,3.43
2023-04-15T00:44:19.090Z,2.92
2023-04-15T00:48:23.153Z,3.41
2023-04-15T00:52:26.192Z,2.82
2023-04-15T00:56:32.322Z,3.15
2023-04-15T01:00:36.333Z,2.22
2023-04-15T01:04:39.834Z,2.65
2023-04-15T01:08:43.233Z,2.96
2023-04-15T01:12:48.184Z,2.69
2023-04-15T01:16:52.321Z,2.88
2023-04-15T01:20:55.559Z,2.94
2023-04-15T01:25:05.048Z,3.21
2023-04-15T01:29:10.795Z,3.16
2023-04-15T01:33:14.002Z,3.19
2023-04-15T01:37:17.194Z,2.88
2023-04-15T01:41:25.496Z,3.03
2023-04-15T01:45:31.275Z,3.15
2023-04-15T01:49:34.807Z,3.23
2023-04-15T01:53:38.151Z,3.17
2023-04-15T01:57:41.878Z,3.09
2023-04-15T02:01:46.811Z,3.46
2023-04-15T02:05:51.191Z,3.36
2023-04-15T02:09:54.656Z,3.38
2023-04-15T02:13:58.225Z,2.87
2023-04-15T02:18:03.016Z,3.16
2023-04-15T02:22:07.697Z,3.29
2023-04-15T02:26:11.479Z,3.22
2023-04-15T02:30:14.926Z,3.34
2023-04-15T02:34:21.180Z,3.00
2023-04-15T02:38:24.380Z,3.38
2023-04-15T02:42:29.187Z,3.38
2023-04-15T02:46:33.196Z,3.30
2023-04-15T02:50:39.916Z,3.32
2023-04-15T02:54:43.577Z,2.88
2023-04-15T02:58:47.420Z,3.06
2023-04-15T03:02:52.732Z,2.38
2023-04-15T03:06:58.806Z,2.46
2023-04-15T03:11:03.076Z,2.98
2023-04-15T03:15:07.278Z,2.76
2023-04-15T03:19:11.145Z,2.87
2023-04-15T03:23:16.481Z,2.68
2023-04-15T03:27:19.763Z,2.61
2023-04-15T03:31:23.155Z,2.55
2023-04-15T03:35:26.943Z,2.51
2023-04-15T03:39:32.026Z,2.20
2023-04-15T03:43:35.533Z,2.28
2023-04-15T03:47:39.557Z,2.15
2023-04-15T03:51:43.275Z,1.82
2023-04-15T03:55:48.535Z,2.15
2023-04-15T03:59:51.922Z,1.96
2023-04-15T04:03:55.646Z,2.32
2023-04-15T04:08:00.179Z,2.47
2023-04-15T04:12:05.575Z,2.68
2023-04-15T04:16:09.256Z,2.22
2023-04-15T04:20:13.036Z,2.28
2023-04-15T04:24:16.687Z,2.52
2023-04-15T04:28:22.540Z,2.68
2023-04-15T04:32:26.527Z,2.76
2023-04-15T04:36:30.026Z,2.49
2023-04-15T04:40:34.975Z,2.86
2023-04-15T04:44:42.417Z,2.77
2023-04-15T04:48:48.009Z,2.93
2023-04-15T04:52:52.050Z,2.93
2023-04-15T04:56:55.967Z,2.79
2023-04-15T05:01:04.679Z,3.19
2023-04-15T05:05:11.603Z,3.07
2023-04-15T05:09:16.727Z,3.23
2023-04-15T05:13:22.182Z,3.07
2023-04-15T05:17:28.557Z,2.99
2023-04-15T05:21:33.646Z,3.76
2023-04-15T05:25:38.546Z,3.74
2023-04-15T05:29:42.994Z,4.10
2023-04-15T05:33:48.497Z,3.90
2023-04-15T05:37:52.955Z,4.11
2023-04-15T05:41:58.133Z,4.36
2023-04-15T05:46:02.752Z,4.37
2023-04-15T05:50:09.329Z,4.61
2023-04-15T05:54:15.057Z,5.17
2023-04-15T05:58:19.503Z,5.30
2023-04-15T06:02:26.877Z,5.66
2023-04-15T06:06:35.235Z,5.52
2023-04-15T06:10:40.238Z,6.23
2023-04-15T06:14:44.899Z,6.45
2023-04-15T06:18:49.733Z,7.60
2023-04-15T06:22:57.420Z,6.53
2023-04-15T06:27:02.665Z,7.67
2023-04-15T06:31:06.966Z,7.55
2023-04-15T06:35:12.117Z,11.91
2023-04-15T06:39:17.760Z,12.52
2023-04-15T06:43:22.314Z,12.37
2023-04-15T06:47:26.511Z,13.62
2023-04-15T06:51:31.356Z,15.41
2023-04-15T06:55:37.033Z,17.94
2023-04-15T06:59:41.191Z,16.58
2023-04-15T07:03:45.856Z,17.34
2023-04-15T07:07:51.126Z,13.89
2023-04-15T07:11:57.421Z,13.50
2023-04-15T07:16:02.620Z,15.56
2023-04-15T07:20:07.886Z,13.61
2023-04-15T07:24:12.433Z,11.83
2023-04-15T07:28:18.414Z,11.35
2023-04-15T07:32:23.125Z,11.64
2023-04-15T07:36:28.650Z,11.71
2023-04-15T07:40:34.086Z,11.79
2023-04-15T07:44:39.878Z,12.21
2023-04-15T07:48:44.663Z,12.37
2023-04-15T07:52:49.653Z,13.37
2023-04-15T07:56:53.931Z,13.03
2023-04-15T08:00:59.996Z,13.13
2023-04-15T08:05:04.915Z,12.05
2023-04-15T08:09:10.459Z,11.85
2023-04-15T08:13:15.543Z,11.91
2023-04-15T08:17:21.254Z,12.80
2023-04-15T08:21:25.818Z,12.70
2023-04-15T08:25:30.165Z,13.51
2023-04-15T08:29:34.728Z,13.86
2023-04-15T08:33:39.305Z,13.84
2023-04-15T08:37:43.030Z,14.23
2023-04-15T08:41:49.810Z,14.72
2023-04-15T08:45:55.565Z,14.21
2023-04-15T08:50:02.159Z,15.08
2023-04-15T08:54:07.251Z,14.70
2023-04-15T08:58:12.123Z,14.39
2023-04-15T09:02:16.650Z,15.11
2023-04-15T09:06:23.314Z,14.90
2023-04-15T09:10:28.002Z,15.10
2023-04-15T09:14:32.872Z,14.58
2023-04-15T09:18:37.866Z,15.51
2023-04-15T09:22:42.963Z,15.89
2023-04-15T09:26:46.675Z,15.55
2023-04-15T09:30:53.753Z,15.05
2023-04-15T09:34:56.667Z,15.09
2023-04-15T09:39:01.812Z,14.81
2023-04-15T09:43:05.409Z,14.54
2023-04-15T09:47:08.332Z,15.91
2023-04-15T09:51:11.707Z,16.57
2023-04-15T09:55:17.364Z,16.44
2023-04-15T09:59:21.775Z,16.78
2023-04-15T10:03:26.948Z,16.37
2023-04-15T10:07:31.201Z,16.09
2023-04-15T10:11:37.669Z,15.11
2023-04-15T10:15:40.801Z,14.23
2023-04-15T10:19:44.677Z,14.24
2023-04-15T10:23:49.286Z,13.86
2023-04-15T10:27:53.905Z,13.85
2023-04-15T10:31:56.992Z,13.74
2023-04-15T10:36:00.786Z,13.58
2023-04-15T10:40:25.660Z,13.98
2023-04-15T10:44:31.286Z,14.48
2023-04-15T10:48:34.432Z,15.59
2023-04-15T10:52:37.944Z,16.99
2023-04-15T10:56:43.188Z,14.87
2023-04-15T11:00:52.729Z,13.95
2023-04-15T11:04:58.358Z,13.86
2023-04-15T11:09:06.298Z,15.44
2023-04-15T11:13:17.962Z,16.97
2023-04-15T11:17:30.314Z,16.13
2023-04-15T11:21:34.776Z,14.70
2023-04-15T11:25:38.468Z,14.33
2023-04-15T11:29:42.048Z,15.16
2023-04-15T11:33:56.128Z,15.80
2023-04-15T11:38:01.564Z,15.79
2023-04-15T11:42:05.214Z,15.46
2023-04-15T11:46:08.639Z,15.67
2023-04-15T11:50:22.217Z,16.22
2023-04-15T11:54:27.317Z,15.27
2023-04-15T11:58:31.976Z,16.40
2023-04-15T12:02:39.306Z,16.58
2023-04-15T12:06:44.086Z,16.27
2023-04-15T12:10:46.948Z,14.89
2023-04-15T12:14:53.224Z,15.06
2023-04-15T12:18:57.067Z,14.70
2023-04-15T12:23:08.211Z,14.89
2023-04-15T12:27:14.614Z,14.43
2023-04-15T12:31:18.093Z,14.38
2023-04-15T12:35:21.890Z,14.74
2023-04-15T12:39:30.611Z,15.84
2023-04-15T12:43:34.297Z,16.40
2023-04-15T12:47:37.822Z,16.62
2023-04-15T12:51:41.132Z,16.37
2023-04-15T12:55:45.771Z,15.47
2023-04-15T12:59:49.265Z,15.47
2023-04-15T13:03:54.258Z,15.70
2023-04-15T13:07:57.595Z,16.23
2023-04-15T13:12:02.705Z,16.11
2023-04-15T13:16:06.692Z,15.10
2023-04-15T13:20:10.836Z,14.80
2023-04-15T13:24:14.234Z,14.15
2023-04-15T13:28:19.334Z,14.41
2023-04-15T13:32:23.000Z,13.75
2023-04-15T13:36:26.465Z,14.21
2023-04-15T13:40:29.758Z,13.74
2023-04-15T13:44:33.745Z,14.20
2023-04-15T13:48:38.015Z,14.45
2023-04-15T13:52:41.264Z,14.42
2023-04-15T13:56:44.027Z,14.15
2023-04-15T14:00:48.258Z,14.69
2023-04-15T14:04:51.542Z,15.14
2023-04-15T14:08:55.003Z,14.58
2023-04-15T14:12:58.056Z,15.04
2023-04-15T14:17:03.021Z,14.79
2023-04-15T14:21:07.530Z,14.40
2023-04-15T14:25:15.136Z,15.28
2023-04-15T14:29:26.711Z,14.55
2023-04-15T14:33:30.903Z,15.13
2023-04-15T14:37:34.195Z,15.04
2023-04-15T14:41:37.802Z,15.07
2023-04-15T14:45:43.707Z,14.20
2023-04-15T14:49:49.604Z,13.60
2023-04-15T14:53:52.927Z,14.12
2023-04-15T14:57:55.954Z,14.44
2023-04-15T15:01:59.054Z,14.79
2023-04-15T15:06:03.596Z,14.48
2023-04-15T15:10:07.660Z,14.47
2023-04-15T15:14:11.856Z,13.93
2023-04-15T15:18:15.643Z,14.13
2023-04-15T15:22:21.453Z,14.41
2023-04-15T15:26:24.565Z,14.10
2023-04-15T15:30:27.277Z,13.90
2023-04-15T15:34:30.622Z,13.79
2023-04-15T15:38:35.269Z,13.18
2023-04-15T15:42:38.945Z,12.86
2023-04-15T15:46:42.106Z,12.77
2023-04-15T15:50:46.011Z,12.98
2023-04-15T15:54:50.711Z,12.96
2023-04-15T15:58:54.335Z,13.22
2023-04-15T16:07:04.480Z,13.15
2023-04-15T16:11:09.146Z,13.16
2023-04-15T16:15:13.187Z,13.26
2023-04-15T16:19:16.570Z,13.70
2023-04-15T16:23:21.664Z,12.90
2023-04-15T16:27:26.064Z,12.84
2023-04-15T16:31:29.171Z,12.73
2023-04-15T16:35:34.457Z,13.10
2023-04-15T16:39:37.956Z,13.06
2023-04-15T16:43:42.952Z,12.79
2023-04-15T16:47:45.855Z,12.54
2023-04-15T16:51:49.115Z,12.19
2023-04-15T16:55:52.504Z,11.92
2023-04-15T16:59:56.980Z,11.83
2023-04-15T17:04:00.259Z,11.74
2023-04-15T17:08:03.318Z,11.78
2023-04-15T17:12:06.475Z,11.78
2023-04-15T17:16:11.274Z,11.74
2023-04-15T17:20:14.319Z,11.57
2023-04-15T17:24:17.146Z,11.45
2023-04-15T17:28:20.248Z,11.39
2023-04-15T17:32:24.924Z,11.33
2023-04-15T17:36:27.945Z,11.24
2023-04-15T17:40:30.750Z,11.06
2023-04-15T17:44:33.725Z,11.33
2023-04-15T17:48:38.237Z,11.17
2023-04-15T17:52:41.701Z,10.87
2023-04-15T17:56:44.449Z,10.96
2023-04-15T18:00:47.456Z,10.73
2023-04-15T18:04:51.994Z,10.76
2023-04-15T18:08:55.144Z,10.82
2023-04-15T18:12:58.128Z,10.79
2023-04-15T18:17:01.128Z,10.83
2023-04-15T18:21:06.188Z,10.58
2023-04-15T18:25:10.237Z,10.52
2023-04-15T18:29:13.350Z,10.47
2023-04-15T18:33:16.602Z,10.39
2023-04-15T18:37:20.949Z,10.35
2023-04-15T18:41:25.286Z,10.38
2023-04-15T18:45:28.129Z,10.28
2023-04-15T18:49:32.364Z,10.27
2023-04-15T18:53:36.909Z,10.19
2023-04-15T18:57:42.840Z,10.04
2023-04-15T19:01:47.460Z,10.24
2023-04-15T19:05:50.921Z,10.03
2023-04-15T19:09:55.803Z,10.12
2023-04-15T19:13:58.905Z,9.92
2023-04-15T19:18:02.266Z,10.01
2023-04-15T19:22:06.161Z,9.89
2023-04-15T19:26:10.610Z,9.86
2023-04-15T19:30:14.113Z,10.03
2023-04-15T19:34:17.539Z,9.90
2023-04-15T19:38:20.632Z,9.82
2023-04-15T19:42:25.340Z,9.72
2023-04-15T19:46:28.699Z,9.77
2023-04-15T19:50:33.405Z,9.61
2023-04-15T19:54:36.729Z,9.56
2023-04-15T19:58:41.505Z,9.40
2023-04-15T20:02:44.945Z,9.49
2023-04-15T20:06:48.109Z,9.51
2023-04-15T20:10:51.466Z,9.51
2023-04-15T20:14:56.233Z,9.55
2023-04-15T20:19:02.105Z,9.58
2023-04-15T20:23:05.235Z,9.47
2023-04-15T20:27:08.378Z,9.40
2023-04-15T20:31:13.412Z,9.51
2023-04-15T20:35:16.636Z,9.50
2023-04-15T20:39:19.952Z,9.44
2023-04-15T20:43:22.900Z,9.44
2023-04-15T20:47:27.790Z,9.48
2023-04-15T20:51:37.331Z,9.46
2023-04-15T20:56:00.309Z,9.41
2023-04-15T21:00:04.209Z,9.39
2023-04-15T21:04:09.190Z,9.40
2023-04-15T21:08:13.041Z,9.43
2023-04-15T21:12:16.583Z,9.31
2023-04-15T21:16:19.731Z,9.43
2023-04-15T21:20:24.605Z,9.45
2023-04-15T21:24:27.721Z,9.31
2023-04-15T21:28:31.000Z,9.33
2023-04-15T21:32:34.814Z,9.32
2023-04-15T21:36:39.966Z,9.34
2023-04-15T21:40:43.158Z,9.13
2023-04-15T21:44:46.533Z,9.25
2023-04-15T21:48:49.756Z,9.23
2023-04-15T21:52:54.327Z,9.28
2023-04-15T21:56:57.451Z,9.17
2023-04-15T22:01:00.784Z,9.11
2023-04-15T22:05:04.035Z,9.20
2023-04-15T22:09:08.698Z,9.13
2023-04-15T22:13:13.024Z,9.22
2023-04-15T22:17:16.051Z,8.95
2023-04-15T22:21:22.116Z,9.19
2023-04-15T22:25:27.283Z,9.08
2023-04-15T22:29:30.614Z,8.69
2023-04-15T22:33:33.948Z,9.13
2023-04-15T22:37:36.920Z,9.06
2023-04-15T22:41:41.583Z,9.06
2023-04-15T22:45:50.303Z,8.88
2023-04-15T22:49:53.405Z,8.89
2023-04-15T22:53:56.792Z,8.92
2023-04-15T22:58:01.294Z,8.99
2023-04-15T23:02:04.469Z,8.86
2023-04-15T23:06:07.742Z,8.78
2023-04-15T23:10:11.408Z,8.77
2023-04-15T23:14:19.191Z,8.72
2023-04-15T23:18:22.591Z,8.75
2023-04-15T23:22:25.532Z,8.53
2023-04-15T23:26:28.813Z,8.69
2023-04-15T23:30:33.504Z,8.67
2023-04-15T23:34:36.965Z,8.73
2023-04-15T23:38:43.020Z,8.57
2023-04-15T23:42:46.611Z,8.62
2023-04-15T23:46:51.835Z,8.45
2023-04-15T23:50:54.878Z,8.58
